• Join FlightAware (Why Join?)
  • Login
  • US Flag 
11:41PM EDT


 

Airport Tracker/Info


-or-


 

Live Flight TrackerFlight Track Log ✈ ASQ4345 ✈ 14-Apr-2013 ✈ KCRP - KIAH

Flight Track Log - Related Links

Times and Time Zones

All times are in EDT time to prevent confusion due to time zone crossing. See the ASQ4345 flight status page for this flight to view local times or setup timezone preferences in your user account.

Time Position Orientation Groundspeed Altitude Reporting Facility
EDT Latitude Longitude Course Direction KTS MPH feet Rate Location/Type
11:42AM 27.7386 -97.4694 132° Southeast 159 183 1,800  Level Houston Center
11:43AM 27.7583 -97.4194 66° East 227 261 3,700 1,560 Climbing Houston Center
11:43AM 27.7947 -97.3994 26° Northeast 245 282 4,600 2,040 Climbing Houston Center
11:44AM 27.8306 -97.3858 19° North 267 307 5,800 2,460 Climbing Houston Center
11:44AM 27.8811 -97.3603 24° Northeast 276 318 7,200 2,040 Climbing Houston Center
11:45AM 27.9471 -97.3923 35° Northeast  Level FlightAware Approximate
11:45AM 27.9556 -97.3253 23° Northeast 280 322 9,500  Level Houston Center
11:46AM 27.9971 -97.3523 35° Northeast  Level FlightAware Approximate
11:46AM 28.0356 -97.2928 20° North 290 334 10,700  Level Houston Center
11:48AM 28.1225 -97.2519 22° Northeast 314 361 11,700 1,200 Climbing Houston Center
11:49AM 28.2022 -97.1739 41° Northeast 358 412 13,200 1,380 Climbing Houston Center
11:50AM 28.2867 -97.1075 35° Northeast 368 423 14,600 1,260 Climbing Houston Center
11:51AM 28.3744 -97.0450 32° Northeast 372 428 15,900 1,140 Climbing Houston Center
11:52AM 28.4811 -96.9653 33° Northeast 379 436 17,000 480 Climbing Houston Center
11:53AM 28.5761 -96.8956 33° Northeast 399 459 17,000  Level Houston Center
11:54AM 28.6747 -96.8211 34° Northeast 419 482 17,000  Level Houston Center
11:55AM 28.7714 -96.7497 33° Northeast 418 481 17,000  Level Houston Center
11:56AM 28.8681 -96.6775 33° Northeast 418 481 17,000  Level Houston Center
11:57AM 28.9836 -96.5908 33° Northeast 417 480 17,000  Level Houston Center
11:58AM 29.0797 -96.5186 33° Northeast 417 480 17,000  Level Houston Center
11:59AM 29.1753 -96.4469 33° Northeast 415 478 17,000 -300 Level Houston Center
12:00PM 29.2700 -96.3753 33° Northeast 412 474 16,500 -1,500 Descending Houston Center
12:01PM 29.3647 -96.3044 33° Northeast 411 473 14,000 -2,520 Descending Houston Center
12:02PM 29.4689 -96.2253 33° Northeast 379 436 11,400 -1,980 Descending Houston Center
12:03PM 29.5489 -96.1567 37° Northeast 363 418 10,000 -780 Descending Houston Center
12:04PM 29.5986 -96.0625 59° Northeast 346 398 9,900 -540 Descending Houston Center
12:05PM 29.6461 -95.9672 60° Northeast 317 365 8,900 -1,020 Descending Houston Center
12:06PM 29.7183 -95.9192 30° Northeast 299 344 7,900 -900 Descending Houston Center
12:07PM 29.7839 -95.8656 35° Northeast 292 336 7,100 -780 Descending Houston Center
12:08PM 29.8558 -95.8019 37° Northeast 290 334 6,300 -840 Descending Houston Center
12:09PM 29.9144 -95.7517 37° Northeast 285 328 5,400 -900 Descending Houston Center
12:10PM 29.9675 -95.6878 46° Northeast 278 320 4,600 -660 Descending Houston Center
12:11PM 29.9931 -95.5956 72° East 268 308 4,000 -840 Descending Houston Center
12:12PM 29.9925 -95.5208 90° East 249 287 2,900 -1,200 Descending Houston Center